Time;durP1;ratioP1;P1;durP2;ratioP2;P2;SDS_P1;SDS_P2;PMS_P1;PMS_P2;Temp;Humidity;BMP_temperature;BMP_pressure;BME280_temperature;BME280_humidity;BME280_pressure;Samples;Min_cycle;Max_cycle;Signal;HPM_P1;HPM_P2
2023/01/26 00:01:21;;;;;;;9.93;6.00;;;;;;;2.38;74.19;97726.28;5088294;28;20246;-72
2023/01/26 00:03:49;;;;;;;11.77;7.00;;;;;;;2.35;73.85;97706.69;5087417;28;20188;-71
2023/01/26 00:06:18;;;;;;;9.80;6.13;;;;;;;2.49;74.40;97714.31;5086513;28;20181;-71
2023/01/26 00:08:49;;;;;;;12.03;6.90;;;;;;;2.47;73.44;97706.63;5087314;28;20196;-71
2023/01/26 00:11:23;;;;;;;9.10;6.20;;;;;;;2.39;73.86;97700.72;5087312;28;20242;-71
2023/01/26 00:13:50;;;;;;;8.07;5.10;;;;;;;2.23;74.48;97700.75;5069575;28;20273;-71
2023/01/26 00:16:18;;;;;;;9.63;5.70;;;;;;;2.20;74.15;97705.88;5085366;28;20196;-71
2023/01/26 00:18:46;;;;;;;8.40;5.43;;;;;;;2.19;74.96;97706.72;5087800;28;20188;-71
2023/01/26 00:21:16;;;;;;;8.60;5.57;;;;;;;2.14;74.33;97705.91;5087082;28;20177;-70
2023/01/26 00:23:43;;;;;;;8.83;5.73;;;;;;;2.18;74.50;97702.50;5087599;28;20196;-71
2023/01/26 00:26:15;;;;;;;9.30;5.87;;;;;;;2.32;74.72;97705.84;5086061;28;20189;-71
2023/01/26 00:28:42;;;;;;;7.93;5.97;;;;;;;2.27;73.27;97703.31;5086883;28;20188;-71
2023/01/26 00:31:12;;;;;;;8.97;6.53;;;;;;;2.34;72.42;97697.34;5087782;28;20227;-71
2023/01/26 00:33:39;;;;;;;10.63;6.23;;;;;;;2.37;72.95;97709.25;5086701;28;20185;-71
2023/01/26 00:36:09;;;;;;;9.73;6.30;;;;;;;2.38;73.69;97695.59;5069983;28;20190;-71
2023/01/26 00:38:36;;;;;;;10.80;6.00;;;;;;;2.51;73.43;97706.66;5086586;28;20224;-72
2023/01/26 00:41:03;;;;;;;11.03;6.80;;;;;;;2.52;73.35;97704.06;5087176;28;20279;-71
2023/01/26 00:43:30;;;;;;;9.70;6.73;;;;;;;2.67;73.03;97703.16;5086998;28;20275;-71
2023/01/26 00:45:57;;;;;;;10.17;6.77;;;;;;;2.51;74.32;97697.28;5085490;28;20245;-70
2023/01/26 00:48:24;;;;;;;11.60;7.73;;;;;;;2.66;73.61;97696.38;5087290;28;20185;-71
2023/01/26 00:50:52;;;;;;;13.07;7.07;;;;;;;2.60;74.63;97694.66;5051731;28;20188;-71
2023/01/26 00:53:19;;;;;;;11.83;7.13;;;;;;;2.63;74.66;97701.47;5087584;28;20292;-70
2023/01/26 00:55:46;;;;;;;7.80;5.63;;;;;;;2.41;74.84;97696.44;5086560;28;20573;-71
2023/01/26 00:58:13;;;;;;;9.57;5.67;;;;;;;2.44;74.77;97693.03;5087074;28;20243;-71
2023/01/26 01:00:40;;;;;;;7.57;5.40;;;;;;;2.50;74.12;97695.56;5086797;28;20185;-71
2023/01/26 01:03:06;;;;;;;9.47;5.60;;;;;;;2.47;73.94;97680.25;5085471;28;20573;-70
2023/01/26 01:05:34;;;;;;;10.57;5.53;;;;;;;2.41;73.71;97665.78;5087125;28;20854;-71
2023/01/26 01:08:01;;;;;;;8.20;5.30;;;;;;;2.34;73.69;97666.66;5068141;28;20202;-71
2023/01/26 01:10:28;;;;;;;8.53;5.33;;;;;;;2.40;73.96;97668.34;5085931;28;20208;-71
2023/01/26 01:12:55;;;;;;;9.37;4.93;;;;;;;2.38;74.02;97662.38;5086193;28;20223;-71
2023/01/26 01:15:23;;;;;;;7.13;5.00;;;;;;;2.43;73.89;97658.13;5085786;28;20189;-71
2023/01/26 01:17:50;;;;;;;8.63;5.70;;;;;;;2.52;73.55;97655.50;5086252;28;20273;-71
2023/01/26 01:20:17;;;;;;;8.57;5.43;;;;;;;2.40;72.95;97651.31;5085863;28;20190;-70
2023/01/26 01:22:45;;;;;;;7.37;5.07;;;;;;;2.39;73.61;97641.94;5089929;28;20263;-71
2023/01/26 01:25:12;;;;;;;8.67;5.90;;;;;;;2.24;74.00;97643.72;5090469;28;20189;-71
2023/01/26 01:27:39;;;;;;;10.83;5.80;;;;;;;2.33;73.77;97630.88;5091303;28;20259;-70
2023/01/26 01:30:07;;;;;;;10.53;6.37;;;;;;;2.15;74.25;97631.81;5090207;28;20279;-71
2023/01/26 01:32:35;;;;;;;7.50;5.30;;;;;;;2.24;74.49;97641.16;5089839;28;20191;-71
2023/01/26 01:35:03;;;;;;;11.80;6.80;;;;;;;2.32;74.18;97634.31;5090271;28;20271;-71
2023/01/26 01:37:30;;;;;;;12.40;6.93;;;;;;;2.27;74.19;97621.53;5089050;28;20216;-71
2023/01/26 01:39:57;;;;;;;14.67;8.00;;;;;;;2.31;73.16;97633.44;5089333;28;20216;-71
2023/01/26 01:42:25;;;;;;;20.97;10.17;;;;;;;2.33;73.57;97631.75;5090391;28;20215;-70
2023/01/26 01:45:34;;;;;;;10.40;6.07;;;;;;;2.22;73.90;97632.66;5090873;28;20181;-71
2023/01/26 01:48:04;;;;;;;10.17;6.33;;;;;;;2.37;74.17;97635.16;5078579;28;20201;-71
2023/01/26 01:50:38;;;;;;;11.17;6.97;;;;;;;2.30;73.61;97615.56;5090454;28;20188;-70
2023/01/26 01:53:09;;;;;;;10.40;7.07;;;;;;;2.36;74.23;97613.00;5089302;28;20670;-70
2023/01/26 01:55:36;;;;;;;14.10;8.47;;;;;;;2.41;73.71;97618.94;5089845;28;20198;-71
2023/01/26 01:58:05;;;;;;;9.57;6.50;;;;;;;2.48;73.92;97621.47;5089173;28;21422;-70
2023/01/26 02:00:32;;;;;;;11.73;6.80;;;;;;;2.55;73.77;97621.41;5089510;28;20641;-69
2023/01/26 02:03:11;;;;;;;10.60;5.90;;;;;;;2.55;73.22;97616.31;5089090;28;20193;-70
2023/01/26 02:05:51;;;;;;;9.30;5.53;;;;;;;2.60;73.14;97622.25;5088602;28;20275;-70
2023/01/26 02:08:20;;;;;;;8.93;5.40;;;;;;;2.44;73.52;97614.66;5088329;28;20218;-70
2023/01/26 02:10:51;;;;;;;8.80;5.73;;;;;;;2.54;73.09;97614.59;5089016;28;20180;-70
2023/01/26 02:13:19;;;;;;;8.37;4.90;;;;;;;2.39;73.69;97600.22;5089258;28;20195;-70
2023/01/26 02:15:46;;;;;;;8.07;5.13;;;;;;;2.48;73.08;97611.22;5090210;28;20199;-70
2023/01/26 02:18:13;;;;;;;6.97;4.43;;;;;;;2.61;72.85;97608.59;5087939;28;20248;-69
2023/01/26 02:20:43;;;;;;;5.90;4.20;;;;;;;2.58;72.13;97611.19;5071907;28;20588;-69
2023/01/26 02:23:30;;;;;;;9.77;5.37;;;;;;;2.56;72.40;97613.75;5088479;28;20181;-69
2023/01/26 02:26:02;;;;;;;7.00;5.23;;;;;;;2.57;72.74;97606.94;5087768;28;20185;-70
2023/01/26 02:28:29;;;;;;;9.87;5.23;;;;;;;2.62;72.57;97613.69;5088682;28;20180;-70
2023/01/26 02:30:56;;;;;;;9.37;6.30;;;;;;;2.49;72.86;97604.41;5087451;28;20280;-69
2023/01/26 02:33:27;;;;;;;9.47;5.77;;;;;;;2.55;72.21;97606.94;5088378;28;20220;-69
2023/01/26 02:35:59;;;;;;;11.03;6.10;;;;;;;2.51;73.21;97595.03;5088160;28;20184;-69
2023/01/26 02:38:35;;;;;;;8.33;5.73;;;;;;;2.38;72.69;97572.94;5087495;28;20770;-69
2023/01/26 02:41:08;;;;;;;18.40;10.07;;;;;;;2.40;72.69;97596.78;5089587;28;20188;-69
2023/01/26 02:43:35;;;;;;;8.87;6.40;;;;;;;2.34;72.90;97586.59;5087186;28;20234;-69
2023/01/26 02:46:03;;;;;;;9.90;6.67;;;;;;;2.23;72.91;97586.66;5089756;28;20573;-70
2023/01/26 02:51:39;;;;;;;8.90;6.53;;;;;;;2.15;74.83;97590.09;5026046;28;20284;-70
2023/01/26 02:54:06;;;;;;;15.10;9.03;;;;;;;2.14;75.34;97583.28;5010294;28;20265;-70
2023/01/26 02:56:38;;;;;;;10.60;6.97;;;;;;;2.00;75.45;97585.88;5055165;28;20201;-70
2023/01/26 02:59:05;;;;;;;13.90;6.67;;;;;;;2.12;75.93;97590.13;5071006;28;20318;-71
2023/01/26 03:01:34;;;;;;;8.53;6.17;;;;;;;2.00;75.22;97575.66;5087238;28;20576;-71
2023/01/26 03:04:01;;;;;;;10.17;6.70;;;;;;;2.12;76.01;97575.63;5087852;28;20180;-71
2023/01/26 03:06:28;;;;;;;10.57;6.77;;;;;;;2.35;75.77;97580.63;5087525;28;20295;-71
2023/01/26 03:08:56;;;;;;;9.33;6.40;;;;;;;2.21;76.28;97575.59;5087182;28;20185;-70
2023/01/26 03:11:23;;;;;;;7.60;5.07;;;;;;;2.23;75.63;97570.47;5089100;28;20181;-70
2023/01/26 03:13:49;;;;;;;8.27;6.30;;;;;;;2.07;75.92;97571.38;5086732;28;20185;-70
2023/01/26 03:16:17;;;;;;;9.10;6.37;;;;;;;2.02;76.41;97562.91;5070807;28;20685;-70
2023/01/26 03:27:26;;;;;;;9.97;6.67;;;;;;;1.82;77.74;97555.31;5086454;28;20208;-71
2023/01/26 03:29:57;;;;;;;9.40;6.93;;;;;;;1.84;77.88;97545.94;5087385;28;20181;-71
2023/01/26 03:32:25;;;;;;;10.93;6.70;;;;;;;1.95;78.18;97548.47;5088566;28;20195;-72
2023/01/26 03:34:53;;;;;;;9.23;6.80;;;;;;;2.12;78.14;97544.13;5086886;28;20194;-70
2023/01/26 03:37:21;;;;;;;8.97;5.70;;;;;;;2.18;76.99;97550.06;5087141;28;20211;-71
2023/01/26 03:56:33;;;;;;;9.87;6.33;;;;;;;2.22;76.49;97540.69;5086238;28;20288;-70
2023/01/26 03:59:08;;;;;;;9.57;5.63;;;;;;;2.32;75.56;97539.75;5087010;28;20296;-70
2023/01/26 04:01:40;;;;;;;8.53;5.60;;;;;;;2.35;75.00;97530.38;5085837;28;20191;-69
2023/01/26 04:09:45;;;;;;;8.63;5.83;;;;;;;2.26;74.54;97506.59;5085967;28;20184;-69
2023/01/26 04:12:12;;;;;;;11.60;6.17;;;;;;;2.21;74.53;97498.09;5086917;28;20181;-72
2023/01/26 04:23:23;;;;;;;8.83;5.53;;;;;;;2.26;74.92;97510.00;5085665;28;20254;-69
2023/01/26 04:25:50;;;;;;;7.77;5.77;;;;;;;2.34;74.40;97497.16;5086600;28;20177;-71
2023/01/26 04:28:17;;;;;;;11.07;7.10;;;;;;;2.26;74.01;97504.03;5079001;28;20197;-70
2023/01/26 04:30:46;;;;;;;9.63;5.80;;;;;;;2.25;75.23;97497.22;5071199;28;20188;-69
2023/01/26 04:33:13;;;;;;;10.67;6.87;;;;;;;2.21;75.23;97501.50;5086906;28;20193;-69
2023/01/26 04:35:40;;;;;;;13.40;7.73;;;;;;;2.07;75.96;97502.44;5085596;28;20190;-68
2023/01/26 04:38:07;;;;;;;13.57;8.23;;;;;;;2.10;75.80;97492.22;5069151;28;20243;-69
2023/01/26 04:40:34;;;;;;;12.30;6.90;;;;;;;2.18;76.07;97498.97;5084488;28;20192;-69
2023/01/26 04:43:03;;;;;;;10.70;6.77;;;;;;;2.28;75.88;97492.94;5087529;28;20195;-72
2023/01/26 04:45:30;;;;;;;14.83;7.73;;;;;;;2.36;75.73;97503.13;5085109;28;20933;-70
2023/01/26 04:47:57;;;;;;;11.83;7.27;;;;;;;2.31;74.79;97485.25;5085779;28;20200;-70
2023/01/26 04:50:25;;;;;;;10.97;6.53;;;;;;;2.43;74.77;97508.16;5085872;28;20192;-70
2023/01/26 04:52:52;;;;;;;10.60;6.60;;;;;;;2.54;74.73;97502.97;5085401;28;20176;-70
2023/01/26 04:55:19;;;;;;;9.07;6.23;;;;;;;2.49;74.47;97499.63;5085299;28;20184;-72
2023/01/26 04:57:46;;;;;;;12.80;6.67;;;;;;;2.43;73.84;97476.66;5084935;28;20208;-71
2023/01/26 05:00:13;;;;;;;10.40;5.77;;;;;;;2.45;74.21;97492.84;5086007;28;20641;-70
2023/01/26 05:02:41;;;;;;;14.37;10.27;;;;;;;2.42;74.38;97487.75;5085225;28;20189;-71
2023/01/26 05:05:09;;;;;;;10.20;6.53;;;;;;;2.21;75.74;97486.16;5083581;28;20211;-72
2023/01/26 05:07:36;;;;;;;9.73;6.67;;;;;;;2.33;75.08;97480.97;5071929;28;20254;-72
2023/01/26 05:10:03;;;;;;;11.90;7.90;;;;;;;2.09;75.94;97459.84;5105986;28;20703;-73
2023/01/26 05:12:41;;;;;;;10.53;7.13;;;;;;;2.00;75.54;97475.25;5085341;28;20187;-71
2023/01/26 05:15:35;;;;;;;12.80;6.73;;;;;;;2.14;76.46;97476.84;5076489;28;20200;-73
2023/01/26 05:18:22;;;;;;;15.77;8.37;;;;;;;2.08;76.89;97471.75;5086372;28;20229;-72
2023/01/26 05:20:56;;;;;;;12.23;7.37;;;;;;;2.22;77.35;97477.66;5068695;28;20595;-73
2023/01/26 05:23:30;;;;;;;9.50;6.60;;;;;;;1.96;76.63;97425.88;5068055;28;20187;-72
2023/01/26 05:26:10;;;;;;;11.00;7.00;;;;;;;2.24;76.71;97472.53;5086024;28;20195;-71
2023/01/26 05:28:54;;;;;;;18.23;8.10;;;;;;;2.22;76.97;97454.66;5083494;28;20284;-71
2023/01/26 05:31:23;;;;;;;10.80;7.53;;;;;;;2.25;76.47;97474.22;5085224;28;20742;-71
2023/01/26 05:33:52;;;;;;;10.27;8.00;;;;;;;2.36;76.62;97459.69;5085477;28;20184;-72
2023/01/26 05:36:22;;;;;;;15.83;7.43;;;;;;;2.38;76.58;97478.41;5084902;28;20191;-72
2023/01/26 05:38:49;;;;;;;13.03;7.97;;;;;;;2.30;76.09;97480.16;5068650;28;20731;-72
2023/01/26 05:41:20;;;;;;;12.10;7.80;;;;;;;2.34;76.74;97469.06;5084641;28;20737;-72
2023/01/26 05:44:26;;;;;;;15.97;9.03;;;;;;;2.36;76.48;97473.31;5043641;28;20315;-71
2023/01/26 05:46:58;;;;;;;13.90;8.07;;;;;;;2.28;77.21;97464.00;5076618;28;20204;-72
2023/01/26 05:49:25;;;;;;;14.07;8.77;;;;;;;2.38;76.87;97463.06;5067805;28;20189;-72
2023/01/26 05:51:56;;;;;;;14.60;8.10;;;;;;;2.23;76.75;97441.03;5068639;28;20722;-70
2023/01/26 05:54:24;;;;;;;13.23;8.57;;;;;;;2.15;77.03;97458.13;5084718;28;20611;-71
2023/01/26 05:56:56;;;;;;;12.87;8.10;;;;;;;2.01;77.43;97449.69;5068364;28;20200;-72
2023/01/26 05:59:24;;;;;;;10.43;7.97;;;;;;;1.91;78.10;97442.94;5084451;28;20209;-71
2023/01/26 06:01:52;;;;;;;13.70;8.23;;;;;;;1.80;78.87;97433.63;5084823;28;20219;-72
2023/01/26 06:04:19;;;;;;;12.07;7.67;;;;;;;1.73;78.67;97419.22;5085277;28;20184;-71
2023/01/26 06:06:52;;;;;;;13.70;8.43;;;;;;;1.85;78.16;97421.69;5052802;28;20990;-72
2023/01/26 06:09:23;;;;;;;10.17;7.30;;;;;;;2.02;77.96;97440.34;5089242;28;20238;-71
2023/01/26 06:12:16;;;;;;;13.50;7.43;;;;;;;2.10;77.82;97436.84;5089715;28;20191;-72
2023/01/26 06:14:57;;;;;;;13.33;9.10;;;;;;;2.31;77.38;97428.19;5089794;28;20786;-70
2023/01/26 06:17:37;;;;;;;16.23;9.53;;;;;;;2.38;77.33;97427.28;5073884;28;20195;-71
2023/01/26 06:20:08;;;;;;;16.23;10.90;;;;;;;2.37;77.02;97433.28;5104785;28;20308;-71
2023/01/26 06:22:35;;;;;;;24.87;12.97;;;;;;;2.40;76.85;97434.09;5071934;28;20742;-71
2023/01/26 06:25:03;;;;;;;24.30;13.90;;;;;;;2.46;77.58;97443.41;5087606;28;20195;-71
2023/01/26 06:27:30;;;;;;;21.87;12.60;;;;;;;2.32;76.92;97415.41;5088314;28;20191;-72
2023/01/26 06:30:00;;;;;;;19.33;12.40;;;;;;;2.43;77.58;97438.34;5071128;28;20200;-72
2023/01/26 06:32:30;;;;;;;22.87;13.43;;;;;;;2.54;77.61;97441.63;5087762;28;20177;-72
2023/01/26 06:34:57;;;;;;;20.57;11.50;;;;;;;2.62;77.64;97421.16;5088643;28;20180;-71
2023/01/26 06:37:24;;;;;;;28.00;15.43;;;;;;;2.76;77.65;97448.25;5087272;28;20601;-71
2023/01/26 06:39:52;;;;;;;28.67;14.73;;;;;;;2.79;77.94;97450.81;5071675;28;20251;-72
2023/01/26 06:42:19;;;;;;;31.17;15.73;;;;;;;2.88;77.24;97450.72;5087483;28;20230;-71
2023/01/26 06:44:46;;;;;;;22.70;13.40;;;;;;;2.61;77.58;97443.31;5088285;28;20663;-72
2023/01/26 06:47:13;;;;;;;25.70;13.77;;;;;;;2.60;78.10;97444.16;5087896;28;20208;-72
2023/01/26 06:49:42;;;;;;;19.03;11.77;;;;;;;2.51;77.75;97426.34;5087597;28;20221;-71
2023/01/26 06:52:27;;;;;;;26.37;11.70;;;;;;;2.69;77.43;97440.66;5071158;28;20203;-72
2023/01/26 06:54:59;;;;;;;19.47;12.67;;;;;;;2.86;77.06;97449.03;5086809;28;20185;-70
2023/01/26 06:57:46;;;;;;;22.40;12.43;;;;;;;2.83;76.66;97437.13;5087876;28;20275;-72
2023/01/26 07:00:35;;;;;;;14.90;9.27;;;;;;;2.93;75.92;97436.19;5087664;28;20180;-71
2023/01/26 07:03:25;;;;;;;18.50;10.03;;;;;;;2.93;75.54;97433.63;5086550;28;20199;-70
2023/01/26 07:05:52;;;;;;;20.13;9.23;;;;;;;2.91;75.58;97421.69;5071380;28;20665;-71
2023/01/26 07:08:19;;;;;;;14.53;8.70;;;;;;;2.99;75.49;97446.34;5088038;28;20189;-70
2023/01/26 07:10:49;;;;;;;12.07;6.90;;;;;;;2.87;75.57;97433.69;5088914;28;20217;-71
2023/01/26 07:13:16;;;;;;;14.23;7.67;;;;;;;2.80;75.71;97424.38;5088629;28;20571;-70
2023/01/26 07:15:43;;;;;;;14.53;9.33;;;;;;;2.84;75.70;97415.81;5070311;28;20222;-70
2023/01/26 07:18:10;;;;;;;16.50;9.17;;;;;;;2.82;75.88;97422.66;5087817;28;20749;-70
2023/01/26 07:20:37;;;;;;;9.90;6.53;;;;;;;2.82;76.37;97420.09;5087570;28;20764;-70
2023/01/26 07:23:04;;;;;;;18.27;9.27;;;;;;;2.94;75.81;97432.78;5088723;28;20184;-71
2023/01/26 07:25:31;;;;;;;21.97;10.73;;;;;;;2.92;76.10;97431.09;5087707;28;20288;-71
2023/01/26 07:27:59;;;;;;;17.53;10.13;;;;;;;2.76;76.10;97420.13;5087043;28;20943;-70
2023/01/26 07:30:26;;;;;;;16.90;10.47;;;;;;;2.85;76.07;97420.06;5053102;28;20196;-71
2023/01/26 07:32:53;;;;;;;19.43;11.97;;;;;;;2.55;77.75;97427.16;5087854;28;20178;-71
2023/01/26 07:35:20;;;;;;;19.00;10.97;;;;;;;2.58;77.64;97401.59;5088474;28;20181;-71
2023/01/26 07:37:48;;;;;;;19.07;10.10;;;;;;;2.85;77.33;97424.31;5085767;28;20232;-71
2023/01/26 07:40:15;;;;;;;14.83;11.20;;;;;;;2.89;77.07;97419.16;5086938;28;20219;-71
2023/01/26 07:42:42;;;;;;;19.07;10.73;;;;;;;2.81;76.99;97410.72;5085526;28;20193;-72
2023/01/26 07:45:43;;;;;;;21.77;11.93;;;;;;;2.89;76.38;97419.16;5074075;28;20188;-69
2023/01/26 07:48:11;;;;;;;19.17;12.33;;;;;;;2.73;77.08;97404.84;5086742;28;20731;-72
2023/01/26 07:50:40;;;;;;;28.50;14.73;;;;;;;2.68;77.11;97396.34;5087308;28;20188;-70
2023/01/26 07:53:08;;;;;;;25.33;14.57;;;;;;;2.76;77.17;97411.63;5087047;28;20680;-70
2023/01/26 07:55:35;;;;;;;24.40;15.97;;;;;;;2.53;77.87;97382.88;5068569;28;20196;-71
2023/01/26 07:58:02;;;;;;;23.33;14.00;;;;;;;2.59;77.43;97396.44;5088005;28;20198;-70
2023/01/26 08:00:29;;;;;;;19.53;12.10;;;;;;;2.56;78.49;97396.47;5085021;28;20227;-71
2023/01/26 08:02:56;;;;;;;20.03;12.43;;;;;;;2.48;79.76;97386.31;5069701;28;20237;-71
2023/01/26 08:05:24;;;;;;;19.90;12.67;;;;;;;2.60;79.45;97385.34;5087496;28;20223;-70
2023/01/26 08:07:51;;;;;;;20.77;11.77;;;;;;;2.80;78.59;97382.63;5085562;28;20287;-72
2023/01/26 08:10:18;;;;;;;22.93;13.27;;;;;;;2.95;78.33;97385.00;5087352;28;20189;-71
2023/01/26 08:12:45;;;;;;;24.70;15.60;;;;;;;2.83;78.27;97362.97;5086121;28;20192;-72
2023/01/26 08:15:13;;;;;;;24.67;16.07;;;;;;;2.98;78.19;97388.41;5069591;28;20195;-72
2023/01/26 08:17:40;;;;;;;25.57;14.80;;;;;;;2.98;78.47;97383.28;5086515;28;20189;-71
2023/01/26 08:20:08;;;;;;;25.90;16.40;;;;;;;3.05;78.79;97369.53;5069051;28;20727;-71
2023/01/26 08:22:37;;;;;;;26.73;17.07;;;;;;;2.86;78.91;97370.63;5069569;28;20189;-71
2023/01/26 08:25:06;;;;;;;30.17;17.40;;;;;;;3.02;79.02;97359.34;5068432;28;20200;-71
2023/01/26 08:27:33;;;;;;;26.43;16.20;;;;;;;3.11;79.06;97374.59;5086013;28;20200;-70
2023/01/26 08:30:01;;;;;;;27.37;16.17;;;;;;;3.07;77.93;97356.75;5084827;28;20185;-70
2023/01/26 08:32:29;;;;;;;21.90;14.03;;;;;;;3.03;78.76;97360.22;5086099;28;20316;-71
2023/01/26 08:34:56;;;;;;;21.40;15.20;;;;;;;3.15;78.84;97360.91;5084698;28;20283;-70
2023/01/26 08:37:23;;;;;;;27.80;15.03;;;;;;;3.24;78.93;97365.91;5085351;28;20231;-71
2023/01/26 08:39:50;;;;;;;25.97;13.57;;;;;;;2.99;78.79;97325.28;5067994;28;20315;-71
2023/01/26 08:42:17;;;;;;;23.40;13.83;;;;;;;3.18;78.12;97355.75;5086404;28;20276;-70
2023/01/26 08:44:44;;;;;;;21.03;12.33;;;;;;;3.11;77.22;97368.66;5068780;28;20791;-70
2023/01/26 08:47:11;;;;;;;20.80;12.63;;;;;;;3.13;76.95;97366.91;5084664;28;20197;-70
2023/01/26 08:49:38;;;;;;;28.60;16.30;;;;;;;3.12;77.71;97371.19;5086849;28;20190;-71
2023/01/26 08:52:05;;;;;;;28.60;16.33;;;;;;;3.29;78.35;97371.84;5068082;28;20177;-71
2023/01/26 08:54:32;;;;;;;29.17;12.90;;;;;;;3.18;76.94;97357.47;5086715;28;20290;-71
2023/01/26 08:56:59;;;;;;;19.40;10.77;;;;;;;3.21;76.76;97365.94;5086237;28;20215;-70
2023/01/26 08:59:26;;;;;;;18.33;10.33;;;;;;;3.23;76.78;97369.34;5086472;28;20217;-70
2023/01/26 09:01:54;;;;;;;14.13;9.63;;;;;;;3.24;77.16;97368.47;5086639;28;20732;-70
2023/01/26 09:04:21;;;;;;;18.10;10.63;;;;;;;3.20;78.27;97368.53;5067702;28;20196;-71
2023/01/26 09:06:48;;;;;;;13.73;9.73;;;;;;;3.20;79.23;97371.94;5087087;28;20663;-71
2023/01/26 09:09:15;;;;;;;13.37;8.57;;;;;;;3.20;78.99;97363.41;5085709;28;20656;-71
2023/01/26 09:11:42;;;;;;;12.13;7.90;;;;;;;3.41;79.42;97362.28;5086852;28;20277;-71
2023/01/26 09:14:09;;;;;;;14.50;9.87;;;;;;;3.34;79.36;97347.91;5085945;28;20227;-71
2023/01/26 09:16:36;;;;;;;12.17;7.93;;;;;;;3.30;79.07;97365.84;5086544;28;20192;-70
2023/01/26 09:19:04;;;;;;;22.23;7.77;;;;;;;3.36;79.22;97354.66;5086361;28;20217;-70
2023/01/26 09:21:30;;;;;;;11.67;7.23;;;;;;;3.47;78.51;97347.72;5085810;28;20189;-69
2023/01/26 09:23:57;;;;;;;14.33;8.23;;;;;;;3.48;79.20;97356.25;5085305;28;20184;-71
2023/01/26 09:26:24;;;;;;;13.87;8.77;;;;;;;3.37;79.52;97350.41;5083831;28;20202;-72
2023/01/26 09:28:52;;;;;;;13.83;9.20;;;;;;;3.12;79.69;97302.09;5085332;28;20220;-71
2023/01/26 09:31:19;;;;;;;14.90;10.07;;;;;;;3.39;79.79;97333.31;5084134;28;20201;-71
2023/01/26 09:33:48;;;;;;;12.50;9.93;;;;;;;3.35;79.16;97326.53;5084900;28;20185;-71
2023/01/26 09:36:15;;;;;;;14.23;9.60;;;;;;;3.25;80.22;97321.56;5086231;28;20253;-71
2023/01/26 09:38:42;;;;;;;13.77;8.87;;;;;;;3.03;81.60;97304.75;5085576;28;20220;-71
2023/01/26 09:41:09;;;;;;;13.77;10.57;;;;;;;3.09;81.46;97314.91;5085270;28;20263;-71
2023/01/26 09:43:44;;;;;;;17.40;10.87;;;;;;;3.18;81.41;97314.81;5088237;28;20679;-71
2023/01/26 09:46:24;;;;;;;16.13;11.13;;;;;;;2.86;83.13;97306.69;5090776;28;20184;-71
2023/01/26 09:49:10;;;;;;;17.47;11.33;;;;;;;2.92;84.14;97292.97;5087967;28;20578;-72
2023/01/26 09:51:46;;;;;;;29.73;18.23;;;;;;;3.04;84.51;97280.88;5089728;28;21021;-71
2023/01/26 09:54:41;;;;;;;22.63;15.43;;;;;;;3.09;84.39;97293.63;5088867;28;20237;-71
2023/01/26 09:57:20;;;;;;;23.57;14.13;;;;;;;2.95;84.69;97281.00;5087326;28;20192;-71
2023/01/26 09:59:57;;;;;;;14.57;9.67;;;;;;;2.88;85.99;97281.09;5089677;28;20702;-71
2023/01/26 10:02:44;;;;;;;17.63;10.13;;;;;;;2.88;86.17;97279.38;5088451;28;20180;-71
2023/01/26 10:05:43;;;;;;;16.90;10.40;;;;;;;2.78;86.36;97271.84;5087491;28;20192;-71
2023/01/26 10:08:13;;;;;;;15.23;9.87;;;;;;;2.81;86.91;97274.34;5075412;28;20981;-71
2023/01/26 10:10:57;;;;;;;21.90;12.43;;;;;;;2.94;87.40;97269.09;5089090;28;20283;-70
2023/01/26 10:13:26;;;;;;;19.40;10.77;;;;;;;2.64;86.55;97231.06;5087486;28;20184;-70
2023/01/26 10:16:04;;;;;;;17.10;10.13;;;;;;;2.92;87.38;97260.59;5089527;28;20184;-71
2023/01/26 10:18:36;;;;;;;20.47;13.53;;;;;;;2.90;88.02;97252.09;5070462;28;20296;-71
2023/01/26 10:21:06;;;;;;;33.80;19.47;;;;;;;3.01;87.37;97239.16;5088183;28;20266;-70
2023/01/26 10:23:34;;;;;;;22.30;12.93;;;;;;;3.07;87.47;97224.56;5087810;28;20268;-71
2023/01/26 10:26:21;;;;;;;19.73;12.77;;;;;;;3.04;87.08;97223.75;5088021;28;20197;-70
2023/01/26 10:28:51;;;;;;;30.67;20.00;;;;;;;3.23;88.10;97223.50;5088195;28;20189;-70
2023/01/26 10:31:21;;;;;;;29.27;19.37;;;;;;;3.24;87.00;97219.22;5088678;28;20622;-69
2023/01/26 10:34:19;;;;;;;21.63;13.60;;;;;;;2.99;87.91;97200.78;5087956;28;20258;-71
2023/01/26 10:36:46;;;;;;;30.97;16.87;;;;;;;3.14;88.31;97192.91;5083283;28;20684;-71
2023/01/26 10:39:15;;;;;;;23.87;15.90;;;;;;;3.03;87.88;97166.63;5088548;28;20252;-72
2023/01/26 10:42:00;;;;;;;25.43;16.73;;;;;;;3.16;88.62;97187.78;5088995;28;20201;-71
2023/01/26 10:44:38;;;;;;;22.33;13.43;;;;;;;3.24;88.19;97180.81;5086846;28;20596;-71
2023/01/26 10:47:27;;;;;;;19.87;12.57;;;;;;;3.24;88.07;97179.13;5104941;28;20585;-70
2023/01/26 10:50:22;;;;;;;20.63;12.70;;;;;;;3.23;88.43;97171.47;5088621;28;20197;-71
2023/01/26 10:53:01;;;;;;;18.63;13.07;;;;;;;3.13;88.95;97177.59;5102863;28;20193;-70
2023/01/26 10:55:30;;;;;;;19.27;12.33;;;;;;;2.99;89.48;97169.25;5089399;28;20189;-70
2023/01/26 10:57:57;;;;;;;16.77;11.47;;;;;;;3.01;89.23;97163.25;5088120;28;20577;-70
2023/01/26 11:00:32;;;;;;;18.97;12.50;;;;;;;3.08;89.38;97159.75;5088700;28;20337;-71
2023/01/26 11:03:16;;;;;;;21.50;12.87;;;;;;;3.01;90.05;97150.47;5087280;28;20755;-70
2023/01/26 11:05:46;;;;;;;23.67;12.57;;;;;;;3.04;90.02;97139.34;5087977;28;20576;-69
2023/01/26 11:08:31;;;;;;;16.87;11.20;;;;;;;2.88;89.76;97133.63;5088798;28;20609;-71
2023/01/26 11:10:58;;;;;;;15.83;9.60;;;;;;;2.87;90.44;97142.16;5087921;28;20219;-71
2023/01/26 11:13:25;;;;;;;15.63;8.27;;;;;;;2.77;90.42;97126.94;5087030;28;20255;-72
2023/01/26 11:16:02;;;;;;;14.90;10.10;;;;;;;2.88;90.38;97120.84;5088442;28;20250;-71
2023/01/26 11:19:08;;;;;;;19.07;13.17;;;;;;;2.74;91.08;97116.78;5087276;28;20192;-70
2023/01/26 11:22:32;;;;;;;17.50;12.03;;;;;;;2.78;90.92;97113.31;5088401;28;20664;-71
2023/01/26 11:25:38;;;;;;;18.60;13.17;;;;;;;2.87;90.92;97110.59;5088575;28;20668;-70
2023/01/26 11:28:56;;;;;;;14.83;10.37;;;;;;;2.87;91.03;97097.81;5089567;27;20203;-70
2023/01/26 11:32:25;;;;;;;15.67;9.23;;;;;;;2.72;90.96;97087.84;5089013;27;20292;-72
2023/01/26 11:35:35;;;;;;;13.60;8.53;;;;;;;2.80;90.61;97088.56;5086067;28;20188;-72
2023/01/26 11:38:59;;;;;;;14.83;10.13;;;;;;;2.86;91.48;97097.00;5088012;28;20266;-70
2023/01/26 11:42:06;;;;;;;16.40;10.07;;;;;;;2.91;91.12;97095.19;5085783;28;20204;-72
2023/01/26 11:45:09;;;;;;;15.30;9.57;;;;;;;3.02;91.31;97092.50;5087063;28;20635;-70
2023/01/26 11:48:05;;;;;;;16.17;10.87;;;;;;;2.97;90.41;97107.03;5088113;28;20194;-71
2023/01/26 11:51:23;;;;;;;18.80;11.67;;;;;;;3.05;90.51;97107.81;5089059;27;20268;-71
2023/01/26 11:54:04;;;;;;;15.53;9.90;;;;;;;2.95;90.35;97107.06;5088452;27;20181;-71
2023/01/26 11:57:36;;;;;;;22.70;12.97;;;;;;;3.00;90.64;97094.22;5087799;28;20261;-70
2023/01/26 12:01:00;;;;;;;13.90;10.07;;;;;;;2.90;90.16;97083.31;5087919;28;20224;-70
2023/01/26 12:04:24;;;;;;;12.10;7.87;;;;;;;2.88;90.07;97064.56;5087511;28;20189;-71
2023/01/26 12:07:53;;;;;;;15.47;9.80;;;;;;;2.91;90.07;97076.44;5086698;28;20189;-71
2023/01/26 12:11:22;;;;;;;13.93;9.40;;;;;;;2.85;89.84;97076.53;5086996;28;20275;-71
2023/01/26 12:14:44;;;;;;;16.57;10.13;;;;;;;2.90;91.06;97067.97;5087549;28;20204;-70
2023/01/26 12:17:44;;;;;;;26.03;14.70;;;;;;;2.91;90.99;97054.28;5089075;27;20188;-70
2023/01/26 12:21:07;;;;;;;24.53;14.40;;;;;;;2.58;91.53;97036.06;5088016;28;20306;-70
2023/01/26 12:24:40;;;;;;;19.20;12.00;;;;;;;2.57;92.01;97040.34;5086447;28;20177;-70
2023/01/26 12:28:01;;;;;;;20.90;12.37;;;;;;;2.44;92.88;97037.13;5087399;28;20207;-70
2023/01/26 12:31:36;;;;;;;16.47;9.77;;;;;;;2.33;93.52;97033.00;5087577;28;20242;-70
2023/01/26 12:34:58;;;;;;;20.83;12.63;;;;;;;2.48;94.02;97033.66;5088694;28;20184;-70
2023/01/26 12:38:24;;;;;;;17.50;11.30;;;;;;;2.47;93.39;97028.56;5084646;28;20224;-71
2023/01/26 12:41:28;;;;;;;21.67;11.30;;;;;;;2.55;93.64;97019.06;5086529;28;20263;-71
2023/01/26 12:44:29;;;;;;;42.40;23.27;;;;;;;2.51;93.73;97019.97;5085214;28;20197;-71
2023/01/26 12:47:56;;;;;;;34.40;19.13;;;;;;;2.52;93.91;97011.44;5086692;28;20180;-71
2023/01/26 12:50:40;;;;;;;24.23;18.10;;;;;;;2.72;93.85;96999.19;5086356;28;20192;-71
2023/01/26 12:53:43;;;;;;;22.53;13.57;;;;;;;2.67;93.12;97003.53;5087913;28;20601;-71